Santo Antonio dos Lopes, Brazil
Current Conditions -  °F | °C
As of 4:00 AM on Saturday 25 Oct 2014 (Local Time) from SBTE Reporting Station
Clear Clear  
Wind Chill: 77°   Ceiling: Unl
Heat Index: 78°   Visibility: 6mi
Dew Point: 73°   Wind: 6mph
Humidity: 89%   Direction: 320°NW
Pressure: 29.77"   Gusts: NA
Location:  4.87°S, 44.37°W
Report Text: SBTE 250700Z 32005KT CAVOK 25/23 Q1008
Loading
Personal Weather Stations






























Interactive Weather Map
Tropical Storm Tracking
New forecast layout! Learn more

10-Day Weather Forecast

Advertisements
Track Severe Weather on mobile